Time;durP1;ratioP1;P1;durP2;ratioP2;P2;SDS_P1;SDS_P2;PMS_P1;PMS_P2;Temp;Humidity;BMP_temperature;BMP_pressure;BME280_temperature;BME280_humidity;BME280_pressure;Samples;Min_cycle;Max_cycle;Signal;HPM_P1;HPM_P2
2021/04/13 00:02:30;;;;;;;11.55;2.03;;;;;;;3.34;77.58;100619.41;5106665;28;20268;-64
2021/04/13 00:05:10;;;;;;;5.40;2.40;;;;;;;3.32;77.74;100610.81;5106169;28;20027;-63
2021/04/13 00:07:39;;;;;;;6.60;1.92;;;;;;;3.35;78.13;100622.00;5106254;28;20032;-64
2021/04/13 00:10:14;;;;;;;14.10;2.67;;;;;;;3.37;78.18;100611.78;5106171;28;20024;-63
2021/04/13 00:12:40;;;;;;;9.80;2.38;;;;;;;3.41;78.33;100611.03;5106352;28;20020;-64
2021/04/13 00:15:23;;;;;;;10.50;2.00;;;;;;;3.38;78.04;100604.97;5087944;28;20128;-64
2021/04/13 00:17:48;;;;;;;13.82;1.98;;;;;;;3.38;78.08;100607.53;5106081;28;20035;-62
2021/04/13 00:20:28;;;;;;;10.90;2.22;;;;;;;3.37;78.13;100608.38;5105713;28;20028;-63
2021/04/13 00:22:54;;;;;;;7.15;2.33;;;;;;;3.35;78.10;100604.03;5106167;28;20028;-65
2021/04/13 00:25:32;;;;;;;12.52;2.53;;;;;;;3.37;78.38;100606.66;5105769;28;20059;-63
2021/04/13 00:27:58;;;;;;;9.60;2.25;;;;;;;3.41;78.46;100603.34;5098505;28;20428;-63
2021/04/13 00:30:29;;;;;;;8.63;1.48;;;;;;;3.43;78.57;100603.38;5105906;28;20039;-64
2021/04/13 00:33:00;;;;;;;8.77;2.30;;;;;;;3.42;78.56;100586.25;5106230;28;20054;-64
2021/04/13 00:35:48;;;;;;;7.03;1.73;;;;;;;3.42;78.26;100597.38;5105592;28;20016;-64
2021/04/13 00:38:25;;;;;;;9.45;2.17;;;;;;;3.39;78.58;100587.03;5105923;28;20148;-63
2021/04/13 00:40:53;;;;;;;16.40;2.10;;;;;;;3.37;78.51;100583.53;5105728;28;20406;-63
2021/04/13 00:43:22;;;;;;;7.88;3.55;;;;;;;3.36;78.54;100597.22;5105865;28;20412;-63
2021/04/13 00:45:48;;;;;;;6.93;1.98;;;;;;;3.34;78.70;100589.47;5105757;28;20032;-63
2021/04/13 00:48:25;;;;;;;6.63;2.00;;;;;;;3.30;78.78;100590.25;5105383;28;20024;-64
2021/04/13 00:50:54;;;;;;;4.85;1.30;;;;;;;3.30;78.83;100597.06;5105135;28;20045;-64
2021/04/13 00:53:24;;;;;;;12.55;2.22;;;;;;;3.32;78.86;100601.41;5105325;28;20039;-61
2021/04/13 00:55:58;;;;;;;7.50;2.80;;;;;;;3.33;78.88;100592.00;5104847;28;20068;-61
2021/04/13 00:58:42;;;;;;;17.92;2.22;;;;;;;3.37;78.79;100598.94;5105301;28;20074;-64
2021/04/13 01:01:28;;;;;;;12.40;2.38;;;;;;;3.37;78.76;100598.09;5086863;28;20027;-63
2021/04/13 01:04:02;;;;;;;14.10;1.90;;;;;;;3.37;78.73;100595.53;5105035;28;20427;-63
2021/04/13 01:06:33;;;;;;;4.43;1.60;;;;;;;3.39;79.02;100597.28;5104645;28;20500;-63
2021/04/13 01:09:23;;;;;;;4.60;1.80;;;;;;;3.38;78.62;100595.56;5105012;28;20111;-65
2021/04/13 01:11:53;;;;;;;4.50;1.48;;;;;;;3.39;78.85;100597.28;5104660;28;20032;-63
2021/04/13 01:14:19;;;;;;;9.00;1.73;;;;;;;3.37;78.43;100587.84;5104861;28;20110;-64
2021/04/13 01:16:55;;;;;;;11.73;2.00;;;;;;;3.39;78.33;100589.59;5105058;28;20012;-65
2021/04/13 01:19:33;;;;;;;7.13;2.15;;;;;;;3.38;78.35;100590.44;5104004;28;20020;-65
2021/04/13 01:22:11;;;;;;;9.32;1.73;;;;;;;3.34;77.95;100593.75;5104235;28;20028;-65
2021/04/13 01:24:45;;;;;;;6.78;1.77;;;;;;;3.34;78.10;100584.34;5104503;28;20096;-64
2021/04/13 01:27:12;;;;;;;10.93;2.20;;;;;;;3.36;78.18;100597.22;5104392;28;20020;-64
2021/04/13 01:29:40;;;;;;;9.48;2.03;;;;;;;3.36;78.26;100589.53;5104249;28;20035;-63
2021/04/13 01:32:07;;;;;;;4.88;1.70;;;;;;;3.38;78.66;100590.44;5104320;28;20040;-64
2021/04/13 01:34:42;;;;;;;13.60;2.35;;;;;;;3.44;78.40;100582.88;5104395;28;20034;-64
2021/04/13 01:40:01;;;;;;;6.88;2.38;;;;;;;3.39;78.35;100589.59;5104195;28;20032;-63
2021/04/13 01:42:30;;;;;;;6.07;1.98;;;;;;;3.37;78.39;100573.28;5103933;28;20034;-64
2021/04/13 01:45:02;;;;;;;7.15;2.17;;;;;;;3.36;78.52;100581.81;5104154;28;20032;-63
2021/04/13 01:47:28;;;;;;;24.42;3.58;;;;;;;3.34;78.81;100588.59;5104063;28;20032;-63
2021/04/13 01:50:35;;;;;;;11.00;2.67;;;;;;;3.38;78.91;100592.13;5104567;28;20028;-62
2021/04/13 01:53:10;;;;;;;3.80;1.75;;;;;;;3.32;78.92;100574.88;5021348;28;20048;-63
2021/04/13 01:55:45;;;;;;;8.65;2.75;;;;;;;3.37;78.96;100586.13;5021029;28;20117;-63
2021/04/13 01:58:51;;;;;;;4.80;0.88;;;;;;;3.40;79.19;100578.53;5021464;28;20034;-63
2021/04/13 02:01:32;;;;;;;11.45;2.53;;;;;;;3.37;79.32;100577.56;5040446;28;20029;-63
2021/04/13 02:04:07;;;;;;;5.18;2.33;;;;;;;3.36;79.77;100574.13;5040966;28;20033;-64
2021/04/13 02:06:36;;;;;;;9.35;2.63;;;;;;;3.42;79.76;100574.25;5023921;28;20029;-63
2021/04/13 02:09:16;;;;;;;7.68;2.42;;;;;;;3.41;79.82;100580.25;5041286;28;20104;-63
2021/04/13 02:11:43;;;;;;;12.88;2.60;;;;;;;3.42;80.17;100574.25;5040998;28;20029;-65
2021/04/13 02:14:14;;;;;;;14.93;3.00;;;;;;;3.39;80.08;100579.31;5040662;28;20044;-65
2021/04/13 02:16:50;;;;;;;5.17;2.00;;;;;;;3.37;80.29;100569.88;5040839;28;20088;-65
2021/04/13 02:19:16;;;;;;;14.13;3.70;;;;;;;3.35;80.35;100577.53;5040840;28;20245;-65
2021/04/13 02:21:55;;;;;;;7.70;3.20;;;;;;;3.27;80.21;100576.47;5040437;28;20029;-65
2021/04/13 02:24:26;;;;;;;10.57;2.90;;;;;;;3.19;80.23;100572.03;5040630;28;20119;-64
2021/04/13 02:26:55;;;;;;;8.02;4.10;;;;;;;3.15;80.43;100583.03;5065077;28;20040;-63
2021/04/13 02:29:26;;;;;;;8.93;3.50;;;;;;;3.09;80.64;100573.50;5102748;28;20127;-63
2021/04/13 02:31:59;;;;;;;18.33;4.70;;;;;;;3.01;80.52;100576.69;5103428;28;20016;-63
2021/04/13 02:34:29;;;;;;;7.43;3.63;;;;;;;2.95;81.04;100575.72;5103435;28;20024;-63
2021/04/13 02:37:00;;;;;;;11.77;4.43;;;;;;;2.94;80.89;100581.66;5103113;28;20019;-63
2021/04/13 02:39:30;;;;;;;13.65;4.82;;;;;;;2.94;81.14;100576.53;5103453;28;20028;-62
2021/04/13 02:42:19;;;;;;;10.45;3.72;;;;;;;2.95;81.24;100578.28;5103377;28;20043;-63
2021/04/13 02:44:57;;;;;;;8.82;2.38;;;;;;;2.93;81.01;100577.38;5103503;28;20042;-63
2021/04/13 02:47:25;;;;;;;12.32;3.55;;;;;;;2.92;80.78;100579.88;5103053;28;20282;-62
2021/04/13 02:49:52;;;;;;;8.48;2.47;;;;;;;2.95;81.12;100578.28;5084859;28;20021;-62
2021/04/13 02:52:24;;;;;;;1.92;1.20;;;;;;;3.00;81.00;100574.94;5103157;28;20073;-63
2021/04/13 02:54:54;;;;;;;6.70;1.30;;;;;;;2.97;80.82;100589.44;5103353;28;20023;-64
2021/04/13 02:57:24;;;;;;;4.63;0.93;;;;;;;2.93;80.84;100584.19;5103058;28;20074;-64
2021/04/13 02:59:55;;;;;;;1.88;0.70;;;;;;;2.92;80.68;100587.59;5103120;28;20020;-63
2021/04/13 03:02:39;;;;;;;6.35;0.90;;;;;;;2.87;80.31;100590.03;5103100;28;20058;-63
2021/04/13 03:05:06;;;;;;;2.50;1.05;;;;;;;2.76;80.44;100586.31;5096609;28;20054;-62
2021/04/13 03:07:36;;;;;;;3.10;0.70;;;;;;;2.75;80.54;100598.25;5102946;28;20046;-63
2021/04/13 03:10:11;;;;;;;2.28;1.05;;;;;;;2.60;80.39;100589.31;5103017;28;20028;-62
2021/04/13 03:12:44;;;;;;;1.92;0.60;;;;;;;2.50;80.58;100591.59;5103164;28;20123;-64
2021/04/13 03:15:18;;;;;;;4.10;1.50;;;;;;;2.42;80.98;100602.50;5103175;28;20024;-64
2021/04/13 03:17:46;;;;;;;3.33;0.80;;;;;;;2.48;80.87;100600.09;5103224;28;20046;-64
2021/04/13 03:20:16;;;;;;;2.00;0.75;;;;;;;2.44;80.99;100598.31;5102785;28;20026;-65
2021/04/13 03:22:43;;;;;;;3.25;0.70;;;;;;;2.37;80.97;100606.63;5103223;28;20055;-64
2021/04/13 03:25:13;;;;;;;1.70;0.70;;;;;;;2.28;81.12;100601.22;5103006;28;20024;-64
2021/04/13 03:27:40;;;;;;;0.55;0.52;;;;;;;2.24;81.17;100602.84;5103019;28;20727;-64
2021/04/13 03:30:27;;;;;;;1.98;0.50;;;;;;;2.14;81.17;100611.94;5102968;28;20024;-63
2021/04/13 03:33:10;;;;;;;0.50;0.47;;;;;;;2.12;81.51;100611.03;5103054;28;20370;-64
2021/04/13 03:35:36;;;;;;;0.90;0.40;;;;;;;2.02;81.40;100602.22;5102777;28;20022;-63
2021/04/13 03:38:08;;;;;;;0.43;0.43;;;;;;;2.00;81.57;100613.25;5102983;28;20080;-63
2021/04/13 03:40:36;;;;;;;0.65;0.50;;;;;;;1.91;81.65;100609.56;5103008;28;20024;-63
2021/04/13 03:43:07;;;;;;;0.73;0.50;;;;;;;1.83;81.73;100614.47;5106503;28;20051;-62
2021/04/13 03:45:35;;;;;;;1.58;0.45;;;;;;;1.72;81.82;100621.81;5106484;28;20016;-65
2021/04/13 03:48:06;;;;;;;0.30;0.30;;;;;;;1.62;81.97;100614.66;5106393;28;20035;-64
2021/04/13 03:50:37;;;;;;;1.00;0.40;;;;;;;1.54;82.20;100616.09;5087635;28;20430;-64
2021/04/13 03:53:11;;;;;;;0.50;0.50;;;;;;;1.50;82.47;100615.16;5106215;28;20020;-64
2021/04/13 03:55:38;;;;;;;2.55;0.50;;;;;;;1.48;82.47;100614.22;5106144;28;20027;-63
2021/04/13 03:58:21;;;;;;;1.50;0.60;;;;;;;1.38;82.86;100610.47;5106488;28;20348;-63
2021/04/13 04:00:47;;;;;;;0.70;0.50;;;;;;;1.45;82.73;100627.75;5105968;28;20023;-64
2021/04/13 04:03:12;;;;;;;2.58;0.60;;;;;;;1.39;82.77;100632.69;5106194;28;20031;-67
2021/04/13 04:05:50;;;;;;;2.17;0.60;;;;;;;1.31;82.85;100634.97;5105720;28;20069;-64
2021/04/13 04:08:20;;;;;;;4.05;1.10;;;;;;;1.26;82.79;100630.56;5106290;28;20129;-63
2021/04/13 04:10:49;;;;;;;0.43;0.43;;;;;;;1.29;82.96;100648.56;5106070;28;20031;-62
2021/04/13 04:13:17;;;;;;;2.83;0.60;;;;;;;1.29;83.38;100643.44;5106241;28;20042;-61
2021/04/13 04:15:52;;;;;;;1.63;0.65;;;;;;;1.29;83.36;100651.13;5106316;28;20035;-62
2021/04/13 04:18:30;;;;;;;2.88;1.00;;;;;;;1.32;83.60;100638.41;5106218;28;20020;-62
2021/04/13 04:20:59;;;;;;;1.13;0.70;;;;;;;1.33;83.70;100645.28;5105864;28;20565;-63
2021/04/13 04:23:33;;;;;;;5.40;1.60;;;;;;;1.34;83.79;100650.44;5106370;28;20054;-63
2021/04/13 04:26:07;;;;;;;1.98;0.60;;;;;;;1.39;84.12;100647.19;5106023;28;20484;-63
2021/04/13 04:28:35;;;;;;;2.20;0.70;;;;;;;1.42;84.13;100658.38;5105925;28;20380;-64
2021/04/13 04:31:35;;;;;;;2.72;0.80;;;;;;;1.45;84.22;100658.47;5105922;28;20043;-66
2021/04/13 04:34:21;;;;;;;2.80;0.90;;;;;;;1.48;84.23;100657.72;5105891;28;20044;-65
2021/04/13 04:36:49;;;;;;;1.67;0.70;;;;;;;1.48;84.40;100661.16;5056071;28;20035;-65
2021/04/13 04:39:27;;;;;;;2.10;0.68;;;;;;;1.48;84.45;100666.28;5105359;28;20012;-65
2021/04/13 04:41:56;;;;;;;4.97;1.42;;;;;;;1.54;84.32;100669.81;5105271;28;20020;-65
2021/04/13 04:44:27;;;;;;;1.85;0.50;;;;;;;1.58;84.51;100669.13;5105923;28;20122;-63
2021/04/13 04:46:59;;;;;;;2.15;0.80;;;;;;;1.65;84.60;100671.06;5105640;28;20028;-64
2021/04/13 04:49:37;;;;;;;4.60;0.70;;;;;;;1.71;84.88;100671.25;5105565;28;20077;-63
2021/04/13 04:52:03;;;;;;;2.28;0.63;;;;;;;1.77;84.88;100674.84;5104511;28;20050;-64
2021/04/13 04:54:29;;;;;;;4.85;1.42;;;;;;;1.85;84.88;100678.53;5104234;28;20092;-65
2021/04/13 04:56:54;;;;;;;3.28;0.70;;;;;;;1.92;84.77;100680.44;5105020;28;20135;-63
2021/04/13 04:59:19;;;;;;;2.95;0.70;;;;;;;2.01;84.90;100682.44;5105326;28;20154;-64
2021/04/13 05:01:47;;;;;;;4.22;0.95;;;;;;;2.15;84.77;100684.53;5105013;28;20119;-63
2021/04/13 05:04:12;;;;;;;1.17;0.73;;;;;;;2.26;84.76;100689.97;5105276;28;20387;-64
2021/04/13 05:06:37;;;;;;;1.75;0.95;;;;;;;2.35;84.35;100697.94;5104935;28;20316;-62
2021/04/13 05:09:03;;;;;;;1.23;0.70;;;;;;;2.39;84.21;100686.97;5104966;28;20045;-64
2021/04/13 05:11:28;;;;;;;3.50;1.10;;;;;;;2.42;84.15;100686.19;5105003;28;20027;-63
2021/04/13 05:13:54;;;;;;;3.38;1.10;;;;;;;2.48;84.00;100702.63;5105166;28;20395;-63
2021/04/13 05:16:21;;;;;;;5.03;1.42;;;;;;;2.45;83.90;100707.66;5105247;28;20024;-65
2021/04/13 05:18:46;;;;;;;10.75;1.52;;;;;;;2.48;83.96;100719.69;5105039;28;20384;-63
2021/04/13 05:21:12;;;;;;;1.75;1.00;;;;;;;2.52;83.88;100713.84;5104339;28;20035;-64
2021/04/13 05:23:37;;;;;;;2.00;1.48;;;;;;;2.45;83.74;100733.28;5104749;28;20039;-64
2021/04/13 05:26:04;;;;;;;1.75;1.33;;;;;;;2.26;82.86;100724.16;5104570;28;20015;-62
2021/04/13 05:28:29;;;;;;;3.78;1.33;;;;;;;2.17;83.43;100723.88;5104998;28;20146;-62
2021/04/13 05:30:55;;;;;;;2.17;1.50;;;;;;;2.09;83.49;100726.22;5104512;28;20019;-62
2021/04/13 05:33:22;;;;;;;1.80;1.52;;;;;;;2.11;83.88;100732.22;5104458;28;20049;-61
2021/04/13 05:35:48;;;;;;;3.17;1.48;;;;;;;2.10;83.85;100733.94;5104236;28;20047;-61
2021/04/13 05:38:24;;;;;;;3.05;1.48;;;;;;;2.12;84.15;100733.09;5104332;28;20561;-61
2021/04/13 05:40:49;;;;;;;2.25;1.40;;;;;;;2.13;84.41;100738.28;5104283;28;20024;-62
2021/04/13 05:43:17;;;;;;;2.10;1.60;;;;;;;2.22;84.48;100740.28;5104265;28;20041;-63
2021/04/13 05:45:46;;;;;;;2.08;1.67;;;;;;;2.20;84.77;100747.03;5104003;28;20048;-62
2021/04/13 05:48:12;;;;;;;5.00;1.90;;;;;;;2.26;84.89;100747.22;5104392;28;20032;-62
2021/04/13 05:50:40;;;;;;;3.88;2.45;;;;;;;2.26;84.99;100754.03;5103995;28;20031;-61
2021/04/13 05:53:06;;;;;;;3.70;2.30;;;;;;;2.27;85.04;100754.09;5104292;28;20031;-61
2021/04/13 05:55:32;;;;;;;4.70;2.15;;;;;;;2.33;85.24;100754.28;5103740;28;20024;-61
2021/04/13 05:58:04;;;;;;;3.13;1.90;;;;;;;2.41;85.40;100759.63;5104119;28;20061;-62
2021/04/13 06:00:30;;;;;;;5.53;2.08;;;;;;;2.51;85.77;100749.69;5103978;28;20043;-62
2021/04/13 06:02:57;;;;;;;2.67;1.63;;;;;;;2.61;85.73;100756.81;5103802;28;20111;-62
2021/04/13 06:05:26;;;;;;;6.30;1.52;;;;;;;2.87;86.02;100766.97;5103382;28;20043;-63
2021/04/13 06:07:52;;;;;;;2.65;1.60;;;;;;;3.19;86.58;100763.59;5103360;28;20020;-66
2021/04/13 06:10:17;;;;;;;6.72;1.60;;;;;;;3.66;87.22;100770.81;5103818;28;20024;-61
2021/04/13 06:12:48;;;;;;;6.38;1.23;;;;;;;3.82;86.84;100773.78;5103897;28;20024;-62
2021/04/13 06:15:16;;;;;;;3.33;1.10;;;;;;;3.87;86.43;100764.50;5104104;28;20035;-61
2021/04/13 06:17:41;;;;;;;5.95;2.17;;;;;;;3.81;86.34;100775.50;5104050;28;20016;-62
2021/04/13 06:20:07;;;;;;;2.88;1.10;;;;;;;3.77;85.53;100778.78;5103646;28;20073;-60
2021/04/13 06:22:32;;;;;;;3.38;1.42;;;;;;;3.64;84.75;100785.34;5103579;28;20030;-61
2021/04/13 06:24:58;;;;;;;4.18;1.77;;;;;;;3.43;84.66;100786.50;5103725;28;20414;-62
2021/04/13 06:27:23;;;;;;;8.80;0.90;;;;;;;3.26;84.67;100787.72;5103790;28;20034;-62
2021/04/13 06:29:48;;;;;;;4.00;1.65;;;;;;;3.18;84.73;100798.63;5103855;28;20031;-62
2021/04/13 06:32:14;;;;;;;5.32;1.17;;;;;;;3.23;85.43;100801.31;5103770;28;20025;-62
2021/04/13 06:34:39;;;;;;;1.25;0.90;;;;;;;3.59;86.08;100799.75;5103760;28;20106;-63
2021/04/13 06:37:06;;;;;;;2.30;1.38;;;;;;;4.25;86.43;100809.09;5103511;28;20432;-65
2021/04/13 06:39:35;;;;;;;3.72;0.70;;;;;;;5.21;85.73;100808.63;5103954;28;20039;-67
2021/04/13 06:42:03;;;;;;;1.38;0.63;;;;;;;5.64;83.42;100812.84;5103394;28;20048;-68
2021/04/13 06:45:02;;;;;;;2.08;0.70;;;;;;;5.97;83.32;100820.31;5103770;28;20028;-66
2021/04/13 06:47:52;;;;;;;1.95;0.70;;;;;;;6.30;83.41;100824.31;5103650;28;20021;-64
2021/04/13 06:50:47;;;;;;;1.77;0.60;;;;;;;7.30;85.90;100820.53;5103337;28;20028;-62
2021/04/13 06:53:37;;;;;;;6.55;0.93;;;;;;;7.86;86.05;100820.25;5103904;28;20027;-62
2021/04/13 06:56:27;;;;;;;0.70;0.43;;;;;;;7.85;84.10;100819.38;5103191;28;20040;-63
2021/04/13 06:59:10;;;;;;;0.70;0.50;;;;;;;7.42;82.23;100817.22;5103726;28;20034;-63
2021/04/13 07:01:39;;;;;;;;;;;;;;;7.28;80.50;100822.22;5103782;28;20055;-64
2021/04/13 07:04:18;;;;;;;2.88;1.27;;;;;;;7.04;81.54;100833.97;5103527;28;19907;-64
2021/04/13 07:06:45;;;;;;;8.32;0.80;;;;;;;6.94;81.75;100833.88;5103687;28;20079;-63
2021/04/13 07:09:24;;;;;;;2.45;0.75;;;;;;;6.89;81.75;100835.50;5103827;28;20032;-64
2021/04/13 07:12:20;;;;;;;0.82;0.50;;;;;;;6.84;79.68;100846.63;5095142;28;20027;-64
2021/04/13 07:15:09;;;;;;;0.98;0.68;;;;;;;6.65;76.46;100846.34;5103633;28;20429;-64
2021/04/13 07:17:52;;;;;;;2.92;0.85;;;;;;;7.55;82.27;100846.66;5107371;28;20020;-64
2021/04/13 07:20:23;;;;;;;3.55;0.60;;;;;;;8.72;82.68;100849.41;5088818;28;20050;-61
2021/04/13 07:23:15;;;;;;;2.63;0.60;;;;;;;9.89;77.78;100842.06;5107563;28;20537;-64
2021/04/13 07:25:49;;;;;;;1.55;0.70;;;;;;;10.58;72.46;100857.69;5107570;28;20020;-66
2021/04/13 07:28:36;;;;;;;1.20;0.65;;;;;;;11.24;77.35;100861.00;5107321;28;20339;-64
2021/04/13 07:31:05;;;;;;;0.45;0.40;;;;;;;11.40;65.42;100838.41;5107342;28;20061;-64
2021/04/13 07:33:33;;;;;;;1.55;0.60;;;;;;;10.88;64.18;100869.75;5107264;28;20028;-64
2021/04/13 07:36:10;;;;;;;1.05;0.50;;;;;;;10.44;68.58;100865.47;5106461;28;20169;-63
2021/04/13 07:38:44;;;;;;;0.90;0.68;;;;;;;10.06;63.78;100867.19;5106692;28;20023;-64
2021/04/13 07:41:23;;;;;;;1.05;0.50;;;;;;;9.83;68.81;100868.88;5106655;28;20020;-64
2021/04/13 07:44:22;;;;;;;2.15;0.70;;;;;;;9.42;65.40;100879.09;5107038;28;20166;-64
2021/04/13 07:47:07;;;;;;;2.25;0.60;;;;;;;8.91;65.81;100879.72;5086506;28;20032;-63
2021/04/13 07:49:45;;;;;;;0.75;0.52;;;;;;;8.59;63.06;100879.50;5106890;28;20035;-64
2021/04/13 07:52:29;;;;;;;1.38;0.50;;;;;;;8.91;69.77;100881.47;5106440;28;20113;-63
2021/04/13 07:55:07;;;;;;;3.20;0.70;;;;;;;9.61;67.62;100884.38;5107045;28;20025;-64
2021/04/13 07:57:47;;;;;;;3.88;0.50;;;;;;;10.10;67.60;100881.88;5106835;28;20050;-63
2021/04/13 08:00:30;;;;;;;2.50;0.68;;;;;;;10.40;62.45;100875.84;5106504;28;20071;-63
2021/04/13 08:03:22;;;;;;;2.67;0.93;;;;;;;10.04;63.97;100887.94;5106780;28;20016;-63
2021/04/13 08:05:54;;;;;;;1.60;0.70;;;;;;;9.27;64.58;100890.28;5106396;28;20541;-64
2021/04/13 08:08:38;;;;;;;4.55;1.00;;;;;;;9.21;63.12;100900.63;5106724;28;20028;-63
2021/04/13 08:11:20;;;;;;;2.67;0.60;;;;;;;9.40;62.08;100900.72;5106441;28;20020;-62
2021/04/13 08:13:49;;;;;;;3.03;0.73;;;;;;;9.66;64.89;100907.72;5106611;28;20035;-63
2021/04/13 08:16:46;;;;;;;2.65;0.90;;;;;;;9.15;61.18;100916.97;5106510;28;20024;-62
2021/04/13 08:19:14;;;;;;;2.95;0.60;;;;;;;8.14;62.11;100919.66;5058467;28;20042;-62
2021/04/13 08:21:40;;;;;;;2.10;0.73;;;;;;;7.20;65.20;100917.69;5105946;28;20028;-63
2021/04/13 08:24:32;;;;;;;2.03;0.77;;;;;;;6.59;67.92;100924.53;5105975;28;20077;-61
2021/04/13 08:27:34;;;;;;;4.40;0.80;;;;;;;6.20;67.53;100927.31;5105461;28;20120;-61
2021/04/13 08:30:20;;;;;;;3.40;0.90;;;;;;;6.23;69.00;100933.38;5080223;28;20461;-61
2021/04/13 08:33:09;;;;;;;5.43;0.80;;;;;;;6.53;70.92;100934.75;5087998;28;20028;-62
2021/04/13 08:35:39;;;;;;;3.17;0.90;;;;;;;6.84;71.20;100932.66;5105912;28;20034;-63
2021/04/13 08:38:26;;;;;;;4.60;1.00;;;;;;;7.84;72.18;100928.81;5106043;28;20093;-63
2021/04/13 08:41:11;;;;;;;4.00;1.00;;;;;;;8.85;68.72;100931.47;5105923;28;20043;-63
2021/04/13 08:44:16;;;;;;;4.80;0.95;;;;;;;8.87;64.50;100934.06;5106059;28;20047;-63
2021/04/13 08:47:12;;;;;;;2.67;0.90;;;;;;;8.38;64.29;100940.56;5022811;28;20055;-62
2021/04/13 08:49:57;;;;;;;3.65;1.02;;;;;;;8.03;67.50;100945.41;5023063;28;20466;-63
2021/04/13 08:52:44;;;;;;;6.95;1.67;;;;;;;7.57;65.57;100956.91;5022803;28;20047;-63
2021/04/13 08:55:16;;;;;;;2.25;0.82;;;;;;;7.06;64.78;100972.56;5023125;28;20176;-63
2021/04/13 08:57:47;;;;;;;3.65;0.90;;;;;;;6.44;66.58;100963.81;5022879;28;20070;-63
2021/04/13 09:00:35;;;;;;;4.57;0.98;;;;;;;6.02;67.87;100969.03;5042745;28;20037;-63
2021/04/13 09:03:04;;;;;;;2.47;0.82;;;;;;;5.74;68.72;100976.22;5042778;28;20026;-63
2021/04/13 09:05:32;;;;;;;3.13;0.95;;;;;;;5.57;70.68;100963.00;5042387;28;20112;-63
2021/04/13 09:08:29;;;;;;;2.42;0.90;;;;;;;5.88;71.16;100973.91;5042335;28;20037;-63
2021/04/13 09:11:28;;;;;;;2.17;0.82;;;;;;;7.71;71.80;100973.44;5038275;28;20088;-63
2021/04/13 09:14:04;;;;;;;3.70;1.00;;;;;;;9.89;66.21;100975.22;5042498;28;20067;-63
2021/04/13 09:16:34;;;;;;;2.28;0.70;;;;;;;11.20;60.68;100973.66;5042338;28;20029;-64
2021/04/13 09:19:05;;;;;;;6.57;0.70;;;;;;;12.38;60.59;100972.31;5042568;28;20359;-63
2021/04/13 09:21:50;;;;;;;2.53;0.67;;;;;;;13.37;55.62;100973.16;5088119;28;20531;-64
2021/04/13 09:24:42;;;;;;;1.73;0.57;;;;;;;14.34;53.88;100974.56;5105158;28;20039;-66
2021/04/13 09:27:38;;;;;;;3.38;0.80;;;;;;;13.86;54.79;100980.44;5105364;28;20103;-65
2021/04/13 09:30:18;;;;;;;1.35;0.70;;;;;;;12.92;54.23;100977.94;5098142;28;20091;-65
2021/04/13 09:32:45;;;;;;;1.92;0.70;;;;;;;12.69;56.93;100984.22;5104998;28;20087;-64
2021/04/13 09:35:35;;;;;;;2.15;0.57;;;;;;;13.21;54.16;100985.47;5105060;28;20085;-63
2021/04/13 09:38:45;;;;;;;2.78;0.60;;;;;;;13.67;52.51;100983.28;5104991;28;20012;-65
2021/04/13 09:41:59;;;;;;;1.10;0.50;;;;;;;14.54;50.64;100986.44;5070798;28;20126;-64
2021/04/13 09:44:39;;;;;;;1.88;0.90;;;;;;;14.27;48.52;100987.72;5022243;28;20042;-64
2021/04/13 09:47:19;;;;;;;1.67;0.60;;;;;;;13.50;51.70;100992.16;5022051;28;20057;-64
2021/04/13 09:49:44;;;;;;;1.73;0.70;;;;;;;14.08;52.50;101001.91;5022142;28;20046;-63
2021/04/13 09:52:10;;;;;;;0.82;0.40;;;;;;;14.93;49.43;100998.06;5032948;28;20064;-65
2021/04/13 09:54:40;;;;;;;1.45;0.60;;;;;;;14.84;50.19;100997.31;5041411;28;20042;-64
2021/04/13 09:57:24;;;;;;;3.50;0.70;;;;;;;14.35;47.38;101009.38;5041692;28;20077;-63
2021/04/13 10:00:30;;;;;;;4.05;0.70;;;;;;;13.39;48.08;101007.91;5041424;28;20048;-65
2021/04/13 10:03:20;;;;;;;3.30;0.70;;;;;;;12.59;50.06;101012.94;5041317;28;20029;-65
2021/04/13 10:05:47;;;;;;;3.20;1.00;;;;;;;11.99;50.43;101016.72;5041281;28;20068;-65
2021/04/13 10:08:26;;;;;;;2.92;0.80;;;;;;;11.36;53.47;101022.13;5041259;28;20072;-65
2021/04/13 10:11:29;;;;;;;3.42;1.10;;;;;;;11.20;54.07;101023.03;5041451;28;20041;-64
2021/04/13 10:14:36;;;;;;;0.85;0.60;;;;;;;11.08;54.42;101034.28;5041516;28;20040;-64
2021/04/13 10:17:22;;;;;;;3.72;0.80;;;;;;;10.97;56.44;101042.97;5041430;28;20025;-64
2021/04/13 10:19:53;;;;;;;1.95;0.73;;;;;;;10.88;57.12;101041.19;5044141;28;20068;-64
2021/04/13 10:22:46;;;;;;;1.42;0.77;;;;;;;10.40;57.03;101047.16;5099749;28;20079;-63
2021/04/13 10:25:26;;;;;;;4.07;1.02;;;;;;;9.79;59.11;101046.91;5104024;28;20028;-63
2021/04/13 10:28:10;;;;;;;4.97;1.20;;;;;;;9.13;59.29;101048.25;5104275;28;20020;-64
2021/04/13 10:31:15;;;;;;;1.67;0.90;;;;;;;8.33;59.27;101044.00;5104128;28;20039;-64
2021/04/13 10:33:59;;;;;;;3.00;1.15;;;;;;;7.94;60.81;101054.75;5104287;28;20053;-64
2021/04/13 10:36:36;;;;;;;6.65;1.20;;;;;;;7.82;62.27;101046.84;5104029;28;20041;-64
2021/04/13 10:39:23;;;;;;;2.92;1.25;;;;;;;7.76;62.11;101051.91;5104244;28;20032;-64
2021/04/13 10:42:10;;;;;;;3.10;1.25;;;;;;;7.72;62.32;101053.59;5104209;28;20024;-66
2021/04/13 10:44:53;;;;;;;1.92;0.80;;;;;;;7.71;62.49;101056.16;5104077;28;20031;-64
2021/04/13 10:47:21;;;;;;;2.38;0.80;;;;;;;7.91;62.72;101053.81;5103989;28;20016;-65
2021/04/13 10:50:24;;;;;;;1.98;1.10;;;;;;;8.19;63.22;101062.78;5104065;28;20024;-65
2021/04/13 10:52:50;;;;;;;3.97;1.10;;;;;;;8.42;62.19;101063.91;5086974;28;20062;-64
2021/04/13 10:55:18;;;;;;;4.82;0.98;;;;;;;8.60;59.22;101067.59;5107994;28;20020;-64
2021/04/13 10:57:46;;;;;;;1.52;0.85;;;;;;;8.62;55.84;101060.72;5108019;28;20036;-64
2021/04/13 11:00:37;;;;;;;1.40;0.80;;;;;;;8.64;55.67;101066.78;5107892;28;20024;-64
2021/04/13 11:03:37;;;;;;;2.40;0.70;;;;;;;8.65;55.42;101066.81;5108135;28;20051;-64
2021/04/13 11:06:25;;;;;;;2.20;0.70;;;;;;;9.87;58.31;101061.66;5107569;28;20031;-64
2021/04/13 11:09:21;;;;;;;4.28;0.75;;;;;;;10.77;54.75;101063.69;5097584;28;20100;-64
2021/04/13 11:12:22;;;;;;;2.80;2.33;;;;;;;10.61;52.53;101073.19;5107656;28;20028;-64
2021/04/13 11:15:14;;;;;;;3.55;1.38;;;;;;;9.98;52.14;101074.69;5107544;28;20024;-64
2021/04/13 11:17:50;;;;;;;3.30;1.30;;;;;;;9.37;53.54;101069.13;5107615;28;20027;-64
2021/04/13 11:20:35;;;;;;;3.03;1.00;;;;;;;8.83;55.26;101083.38;5107736;28;20053;-64
2021/04/13 11:23:28;;;;;;;2.30;1.00;;;;;;;8.60;58.21;101091.75;5107549;28;20028;-64
2021/04/13 11:26:06;;;;;;;5.22;1.83;;;;;;;8.50;59.40;101087.31;5107435;28;20081;-64
2021/04/13 11:29:08;;;;;;;3.17;0.75;;;;;;;8.48;59.81;101089.84;5107354;28;20024;-64
2021/04/13 11:31:34;;;;;;;2.30;1.00;;;;;;;8.50;58.98;101087.31;5107084;28;20085;-64
2021/04/13 11:33:59;;;;;;;3.25;0.90;;;;;;;8.47;59.37;101095.00;5107245;28;20032;-64
2021/04/13 11:36:42;;;;;;;4.18;1.13;;;;;;;8.43;60.27;101094.13;5107210;28;20028;-62
2021/04/13 11:39:25;;;;;;;5.90;1.35;;;;;;;8.48;61.04;101091.59;5107063;28;20495;-65
2021/04/13 11:42:24;;;;;;;2.70;1.10;;;;;;;8.25;57.71;101098.25;5106836;28;20023;-64
2021/04/13 11:45:14;;;;;;;2.13;0.90;;;;;;;7.96;57.30;101092.66;5107043;28;20434;-64
2021/04/13 11:48:06;;;;;;;2.60;0.85;;;;;;;7.86;60.17;101089.13;5106944;28;20023;-63
2021/04/13 11:51:00;;;;;;;3.75;0.85;;;;;;;7.76;60.56;101089.00;5106688;28;20488;-64
2021/04/13 11:53:47;;;;;;;2.63;0.82;;;;;;;7.79;61.27;101088.16;5106893;28;20345;-64
2021/04/13 11:56:22;;;;;;;3.45;1.10;;;;;;;7.73;57.46;101095.81;5106289;28;20059;-63
2021/04/13 11:59:12;;;;;;;1.70;0.80;;;;;;;7.64;54.80;101081.03;5106674;28;20020;-64
2021/04/13 12:01:40;;;;;;;4.25;0.90;;;;;;;7.78;55.76;101091.59;5106152;28;20016;-63
2021/04/13 12:04:12;;;;;;;2.35;1.00;;;;;;;7.80;57.87;101089.88;5088245;28;20069;-63
2021/04/13 12:06:50;;;;;;;8.00;1.98;;;;;;;7.90;58.21;101102.09;5106027;28;20035;-63
2021/04/13 12:09:38;;;;;;;3.50;0.70;;;;;;;7.96;56.35;101100.44;5106362;28;20512;-63
2021/04/13 12:12:07;;;;;;;0.70;0.60;;;;;;;7.89;52.42;101091.75;5106330;28;20030;-63
2021/04/13 12:14:42;;;;;;;1.98;0.95;;;;;;;7.86;55.76;101096.88;5106227;28;20028;-64
2021/04/13 12:17:29;;;;;;;3.65;1.00;;;;;;;7.97;56.57;101090.09;5106113;28;20032;-64
2021/04/13 12:20:25;;;;;;;1.83;0.63;;;;;;;8.14;54.27;101095.53;5106051;28;20043;-64